sensor_id;sensor_type;location;lat;lon;timestamp;pressure;altitude;pressure_sealevel;temperature;humidity
54872;BME280;43914;57.680;11.982;2024-03-02T00:00:50;100069.41;;;4.88;100.00
54872;BME280;43914;57.680;11.982;2024-03-02T00:03:17;100072.60;;;4.89;100.00
54872;BME280;43914;57.680;11.982;2024-03-02T00:05:42;100075.86;;;4.88;100.00
54872;BME280;43914;57.680;11.982;2024-03-02T00:08:09;100076.44;;;4.87;100.00
54872;BME280;43914;57.680;11.982;2024-03-02T00:10:38;100075.20;;;4.89;100.00
54872;BME280;43914;57.680;11.982;2024-03-02T00:13:08;100068.55;;;4.88;100.00
54872;BME280;43914;57.680;11.982;2024-03-02T00:18:04;100073.53;;;4.86;100.00
54872;BME280;43914;57.680;11.982;2024-03-02T00:20:31;100076.46;;;4.87;100.00
54872;BME280;43914;57.680;11.982;2024-03-02T00:23:04;100079.70;;;4.87;100.00
54872;BME280;43914;57.680;11.982;2024-03-02T00:25:47;100074.34;;;4.86;100.00
54872;BME280;43914;57.680;11.982;2024-03-02T00:28:19;100079.39;;;4.85;100.00
54872;BME280;43914;57.680;11.982;2024-03-02T00:33:10;100080.14;;;4.83;100.00
54872;BME280;43914;57.680;11.982;2024-03-02T00:35:36;100073.29;;;4.82;100.00
54872;BME280;43914;57.680;11.982;2024-03-02T00:38:05;100072.73;;;4.83;100.00
54872;BME280;43914;57.680;11.982;2024-03-02T00:40:32;100081.40;;;4.83;100.00
54872;BME280;43914;57.680;11.982;2024-03-02T00:42:57;100081.36;;;4.81;100.00
54872;BME280;43914;57.680;11.982;2024-03-02T00:45:23;100083.74;;;4.84;100.00
54872;BME280;43914;57.680;11.982;2024-03-02T00:47:50;100085.06;;;4.83;100.00
54872;BME280;43914;57.680;11.982;2024-03-02T00:50:16;100089.39;;;4.83;100.00
54872;BME280;43914;57.680;11.982;2024-03-02T00:52:42;100095.14;;;4.82;100.00
54872;BME280;43914;57.680;11.982;2024-03-02T00:55:08;100094.08;;;4.82;100.00
54872;BME280;43914;57.680;11.982;2024-03-02T00:57:34;100086.91;;;4.82;100.00
54872;BME280;43914;57.680;11.982;2024-03-02T01:00:00;100090.22;;;4.81;100.00
54872;BME280;43914;57.680;11.982;2024-03-02T01:02:26;100099.77;;;4.82;100.00
54872;BME280;43914;57.680;11.982;2024-03-02T01:04:52;100093.54;;;4.82;100.00
54872;BME280;43914;57.680;11.982;2024-03-02T01:07:17;100091.52;;;4.82;100.00
54872;BME280;43914;57.680;11.982;2024-03-02T01:09:43;100089.77;;;4.84;100.00
54872;BME280;43914;57.680;11.982;2024-03-02T01:12:08;100088.95;;;4.85;100.00
54872;BME280;43914;57.680;11.982;2024-03-02T01:14:34;100088.75;;;4.85;100.00
54872;BME280;43914;57.680;11.982;2024-03-02T01:17:00;100091.64;;;4.85;100.00
54872;BME280;43914;57.680;11.982;2024-03-02T01:19:28;100095.07;;;4.86;100.00
54872;BME280;43914;57.680;11.982;2024-03-02T01:21:54;100098.74;;;4.86;100.00
54872;BME280;43914;57.680;11.982;2024-03-02T01:24:20;100097.50;;;4.86;100.00
54872;BME280;43914;57.680;11.982;2024-03-02T01:26:45;100098.83;;;4.87;100.00
54872;BME280;43914;57.680;11.982;2024-03-02T01:29:10;100096.97;;;4.88;100.00
54872;BME280;43914;57.680;11.982;2024-03-02T01:31:36;100089.84;;;4.88;100.00
54872;BME280;43914;57.680;11.982;2024-03-02T01:34:01;100093.67;;;4.89;100.00
54872;BME280;43914;57.680;11.982;2024-03-02T01:36:27;100093.34;;;4.89;100.00
54872;BME280;43914;57.680;11.982;2024-03-02T01:38:52;100091.86;;;4.89;100.00
54872;BME280;43914;57.680;11.982;2024-03-02T01:41:17;100090.91;;;4.90;100.00
54872;BME280;43914;57.680;11.982;2024-03-02T01:43:43;100089.19;;;4.91;100.00
54872;BME280;43914;57.680;11.982;2024-03-02T01:46:08;100083.42;;;4.92;100.00
54872;BME280;43914;57.680;11.982;2024-03-02T01:48:34;100079.73;;;4.94;100.00
54872;BME280;43914;57.680;11.982;2024-03-02T01:51:00;100080.67;;;4.95;100.00
54872;BME280;43914;57.680;11.982;2024-03-02T01:53:26;100081.92;;;4.96;100.00
54872;BME280;43914;57.680;11.982;2024-03-02T01:55:52;100077.27;;;4.97;100.00
54872;BME280;43914;57.680;11.982;2024-03-02T01:58:17;100073.75;;;4.98;100.00
54872;BME280;43914;57.680;11.982;2024-03-02T02:00:42;100063.63;;;4.98;100.00
54872;BME280;43914;57.680;11.982;2024-03-02T02:03:08;100062.89;;;4.98;100.00
54872;BME280;43914;57.680;11.982;2024-03-02T02:05:34;100062.23;;;4.98;100.00
54872;BME280;43914;57.680;11.982;2024-03-02T02:08:01;100058.66;;;4.98;100.00
54872;BME280;43914;57.680;11.982;2024-03-02T02:10:26;100050.02;;;4.98;100.00
54872;BME280;43914;57.680;11.982;2024-03-02T02:12:52;100044.51;;;4.97;100.00
54872;BME280;43914;57.680;11.982;2024-03-02T02:15:30;100044.98;;;4.98;100.00
54872;BME280;43914;57.680;11.982;2024-03-02T02:17:58;100050.80;;;4.97;100.00
54872;BME280;43914;57.680;11.982;2024-03-02T02:20:24;100050.48;;;4.95;100.00
54872;BME280;43914;57.680;11.982;2024-03-02T02:22:55;100050.02;;;4.94;100.00
54872;BME280;43914;57.680;11.982;2024-03-02T02:25:20;100047.85;;;4.95;100.00
54872;BME280;43914;57.680;11.982;2024-03-02T02:27:46;100047.18;;;4.94;100.00
54872;BME280;43914;57.680;11.982;2024-03-02T02:30:12;100041.05;;;4.92;100.00
54872;BME280;43914;57.680;11.982;2024-03-02T02:32:37;100036.09;;;4.90;100.00
54872;BME280;43914;57.680;11.982;2024-03-02T02:35:03;100036.82;;;4.88;100.00
54872;BME280;43914;57.680;11.982;2024-03-02T02:37:28;100030.84;;;4.86;100.00
54872;BME280;43914;57.680;11.982;2024-03-02T02:39:54;100027.16;;;4.84;100.00
54872;BME280;43914;57.680;11.982;2024-03-02T02:42:19;100026.16;;;4.81;100.00
54872;BME280;43914;57.680;11.982;2024-03-02T02:44:45;100023.70;;;4.81;100.00
54872;BME280;43914;57.680;11.982;2024-03-02T02:47:10;100018.33;;;4.78;100.00
54872;BME280;43914;57.680;11.982;2024-03-02T02:49:35;100023.52;;;4.80;100.00
54872;BME280;43914;57.680;11.982;2024-03-02T02:52:01;100013.34;;;4.78;100.00
54872;BME280;43914;57.680;11.982;2024-03-02T02:54:27;100004.75;;;4.79;100.00
54872;BME280;43914;57.680;11.982;2024-03-02T02:56:52;100001.70;;;4.78;100.00
54872;BME280;43914;57.680;11.982;2024-03-02T02:59:18;99997.38;;;4.77;100.00
54872;BME280;43914;57.680;11.982;2024-03-02T03:01:43;99993.88;;;4.78;100.00
54872;BME280;43914;57.680;11.982;2024-03-02T03:04:09;99994.38;;;4.78;100.00
54872;BME280;43914;57.680;11.982;2024-03-02T03:06:34;99994.67;;;4.79;100.00
54872;BME280;43914;57.680;11.982;2024-03-02T03:09:00;99995.20;;;4.79;100.00
54872;BME280;43914;57.680;11.982;2024-03-02T03:11:25;99993.11;;;4.77;100.00
54872;BME280;43914;57.680;11.982;2024-03-02T03:13:52;99997.83;;;4.76;100.00
54872;BME280;43914;57.680;11.982;2024-03-02T03:16:19;99999.67;;;4.73;100.00
54872;BME280;43914;57.680;11.982;2024-03-02T03:18:44;100004.71;;;4.73;100.00
54872;BME280;43914;57.680;11.982;2024-03-02T03:21:10;100001.83;;;4.70;100.00
54872;BME280;43914;57.680;11.982;2024-03-02T03:23:35;100003.92;;;4.69;100.00
54872;BME280;43914;57.680;11.982;2024-03-02T03:26:00;100005.27;;;4.67;100.00
54872;BME280;43914;57.680;11.982;2024-03-02T03:28:26;100002.10;;;4.65;100.00
54872;BME280;43914;57.680;11.982;2024-03-02T03:30:51;100003.27;;;4.64;100.00
54872;BME280;43914;57.680;11.982;2024-03-02T03:33:17;100000.88;;;4.62;100.00
54872;BME280;43914;57.680;11.982;2024-03-02T03:35:42;100001.27;;;4.60;100.00
54872;BME280;43914;57.680;11.982;2024-03-02T03:38:07;100001.77;;;4.58;100.00
54872;BME280;43914;57.680;11.982;2024-03-02T03:40:33;100005.56;;;4.56;100.00
54872;BME280;43914;57.680;11.982;2024-03-02T03:42:58;100006.66;;;4.54;100.00
54872;BME280;43914;57.680;11.982;2024-03-02T03:45:25;100004.84;;;4.51;100.00
54872;BME280;43914;57.680;11.982;2024-03-02T03:47:53;99995.96;;;4.50;100.00
54872;BME280;43914;57.680;11.982;2024-03-02T03:50:18;99994.55;;;4.48;100.00
54872;BME280;43914;57.680;11.982;2024-03-02T03:52:45;99995.52;;;4.45;100.00
54872;BME280;43914;57.680;11.982;2024-03-02T03:55:10;100001.44;;;4.45;100.00
54872;BME280;43914;57.680;11.982;2024-03-02T03:57:36;99999.31;;;4.43;100.00
54872;BME280;43914;57.680;11.982;2024-03-02T04:00:05;100006.29;;;4.43;100.00
54872;BME280;43914;57.680;11.982;2024-03-02T04:02:35;100008.36;;;4.41;100.00
54872;BME280;43914;57.680;11.982;2024-03-02T04:05:01;100008.55;;;4.41;100.00
54872;BME280;43914;57.680;11.982;2024-03-02T04:07:30;100010.08;;;4.40;100.00
54872;BME280;43914;57.680;11.982;2024-03-02T04:09:55;100007.09;;;4.40;100.00
54872;BME280;43914;57.680;11.982;2024-03-02T04:12:21;100000.80;;;4.39;100.00
54872;BME280;43914;57.680;11.982;2024-03-02T04:14:47;99999.00;;;4.38;100.00
54872;BME280;43914;57.680;11.982;2024-03-02T04:17:12;99996.57;;;4.37;100.00
54872;BME280;43914;57.680;11.982;2024-03-02T04:19:38;99996.20;;;4.37;100.00
54872;BME280;43914;57.680;11.982;2024-03-02T04:22:04;99993.14;;;4.36;100.00
54872;BME280;43914;57.680;11.982;2024-03-02T04:24:29;99990.11;;;4.36;100.00
54872;BME280;43914;57.680;11.982;2024-03-02T04:26:55;99989.77;;;4.36;100.00
54872;BME280;43914;57.680;11.982;2024-03-02T04:29:21;99987.73;;;4.35;100.00
54872;BME280;43914;57.680;11.982;2024-03-02T04:31:46;99989.90;;;4.33;100.00
54872;BME280;43914;57.680;11.982;2024-03-02T04:34:12;99986.38;;;4.31;100.00
54872;BME280;43914;57.680;11.982;2024-03-02T04:36:37;99984.41;;;4.31;100.00
54872;BME280;43914;57.680;11.982;2024-03-02T04:39:03;99981.22;;;4.31;100.00
54872;BME280;43914;57.680;11.982;2024-03-02T04:41:28;99981.39;;;4.29;100.00
54872;BME280;43914;57.680;11.982;2024-03-02T04:43:53;99984.48;;;4.31;100.00
54872;BME280;43914;57.680;11.982;2024-03-02T04:46:19;99980.42;;;4.30;100.00
54872;BME280;43914;57.680;11.982;2024-03-02T04:48:44;99977.42;;;4.32;100.00
54872;BME280;43914;57.680;11.982;2024-03-02T04:51:10;99974.08;;;4.33;100.00
54872;BME280;43914;57.680;11.982;2024-03-02T04:53:36;99981.35;;;4.35;100.00
54872;BME280;43914;57.680;11.982;2024-03-02T04:56:01;99984.70;;;4.37;100.00
54872;BME280;43914;57.680;11.982;2024-03-02T04:58:45;99983.96;;;4.41;100.00
54872;BME280;43914;57.680;11.982;2024-03-02T05:01:11;99985.99;;;4.42;100.00
54872;BME280;43914;57.680;11.982;2024-03-02T05:03:38;99987.20;;;4.44;100.00
54872;BME280;43914;57.680;11.982;2024-03-02T05:06:03;99986.27;;;4.45;100.00
54872;BME280;43914;57.680;11.982;2024-03-02T05:08:29;99988.27;;;4.47;100.00
54872;BME280;43914;57.680;11.982;2024-03-02T05:10:54;99983.83;;;4.47;100.00
54872;BME280;43914;57.680;11.982;2024-03-02T05:13:20;99981.82;;;4.49;100.00
54872;BME280;43914;57.680;11.982;2024-03-02T05:15:46;99978.00;;;4.52;100.00
54872;BME280;43914;57.680;11.982;2024-03-02T05:18:12;99973.25;;;4.53;100.00
54872;BME280;43914;57.680;11.982;2024-03-02T05:20:37;99974.73;;;4.56;100.00
54872;BME280;43914;57.680;11.982;2024-03-02T05:23:03;99979.24;;;4.58;100.00
54872;BME280;43914;57.680;11.982;2024-03-02T05:25:28;99981.98;;;4.61;100.00
54872;BME280;43914;57.680;11.982;2024-03-02T05:27:54;99976.70;;;4.64;100.00
54872;BME280;43914;57.680;11.982;2024-03-02T05:30:19;99975.96;;;4.68;100.00
54872;BME280;43914;57.680;11.982;2024-03-02T05:32:45;99970.45;;;4.70;100.00
54872;BME280;43914;57.680;11.982;2024-03-02T05:35:10;99971.39;;;4.71;100.00
54872;BME280;43914;57.680;11.982;2024-03-02T05:37:37;99974.97;;;4.72;100.00
54872;BME280;43914;57.680;11.982;2024-03-02T05:40:05;99974.34;;;4.75;100.00
54872;BME280;43914;57.680;11.982;2024-03-02T05:42:30;99973.14;;;4.78;100.00
54872;BME280;43914;57.680;11.982;2024-03-02T05:44:56;99972.61;;;4.79;100.00
54872;BME280;43914;57.680;11.982;2024-03-02T05:47:21;99973.20;;;4.80;100.00
54872;BME280;43914;57.680;11.982;2024-03-02T05:49:47;99973.14;;;4.83;100.00
54872;BME280;43914;57.680;11.982;2024-03-02T05:52:12;99976.19;;;4.84;100.00
54872;BME280;43914;57.680;11.982;2024-03-02T05:54:37;99975.95;;;4.86;100.00
54872;BME280;43914;57.680;11.982;2024-03-02T05:57:04;99974.77;;;4.89;100.00
54872;BME280;43914;57.680;11.982;2024-03-02T05:59:42;99978.17;;;4.92;100.00
54872;BME280;43914;57.680;11.982;2024-03-02T06:02:09;99978.34;;;4.94;100.00
54872;BME280;43914;57.680;11.982;2024-03-02T06:04:34;99973.89;;;4.94;100.00
54872;BME280;43914;57.680;11.982;2024-03-02T06:07:00;99984.90;;;4.96;100.00
54872;BME280;43914;57.680;11.982;2024-03-02T06:09:25;99983.00;;;4.97;100.00
54872;BME280;43914;57.680;11.982;2024-03-02T06:11:51;99986.40;;;4.98;100.00
54872;BME280;43914;57.680;11.982;2024-03-02T06:14:17;99983.74;;;5.00;100.00
54872;BME280;43914;57.680;11.982;2024-03-02T06:16:42;99986.80;;;5.03;100.00
54872;BME280;43914;57.680;11.982;2024-03-02T06:19:07;99983.80;;;5.04;100.00
54872;BME280;43914;57.680;11.982;2024-03-02T06:21:33;99985.52;;;5.04;100.00
54872;BME280;43914;57.680;11.982;2024-03-02T06:23:58;99987.83;;;5.04;100.00
54872;BME280;43914;57.680;11.982;2024-03-02T06:26:24;99992.42;;;5.05;100.00
54872;BME280;43914;57.680;11.982;2024-03-02T06:28:49;99990.16;;;5.06;100.00
54872;BME280;43914;57.680;11.982;2024-03-02T06:31:15;99991.66;;;5.07;100.00
54872;BME280;43914;57.680;11.982;2024-03-02T06:33:40;99989.13;;;5.09;100.00
54872;BME280;43914;57.680;11.982;2024-03-02T06:36:07;99988.71;;;5.11;100.00
54872;BME280;43914;57.680;11.982;2024-03-02T06:38:37;99986.66;;;5.12;100.00
54872;BME280;43914;57.680;11.982;2024-03-02T06:41:02;99984.86;;;5.14;100.00
54872;BME280;43914;57.680;11.982;2024-03-02T06:43:27;99987.30;;;5.14;100.00
54872;BME280;43914;57.680;11.982;2024-03-02T06:45:53;99986.30;;;5.17;100.00
54872;BME280;43914;57.680;11.982;2024-03-02T06:48:19;99990.06;;;5.18;100.00
54872;BME280;43914;57.680;11.982;2024-03-02T06:50:49;99996.69;;;5.19;100.00
54872;BME280;43914;57.680;11.982;2024-03-02T06:53:15;99997.69;;;5.20;100.00
54872;BME280;43914;57.680;11.982;2024-03-02T06:55:45;99993.65;;;5.21;100.00
54872;BME280;43914;57.680;11.982;2024-03-02T06:58:14;99991.13;;;5.24;100.00
54872;BME280;43914;57.680;11.982;2024-03-02T07:00:42;99991.84;;;5.25;100.00
54872;BME280;43914;57.680;11.982;2024-03-02T07:03:08;99994.70;;;5.28;100.00
54872;BME280;43914;57.680;11.982;2024-03-02T07:05:33;99994.58;;;5.31;100.00
54872;BME280;43914;57.680;11.982;2024-03-02T07:07:58;99994.77;;;5.34;100.00
54872;BME280;43914;57.680;11.982;2024-03-02T07:10:24;99995.55;;;5.38;100.00
54872;BME280;43914;57.680;11.982;2024-03-02T07:12:50;99998.00;;;5.41;100.00
54872;BME280;43914;57.680;11.982;2024-03-02T07:15:15;99999.78;;;5.42;100.00
54872;BME280;43914;57.680;11.982;2024-03-02T07:17:55;99997.75;;;5.44;100.00
54872;BME280;43914;57.680;11.982;2024-03-02T07:20:21;99999.81;;;5.48;100.00
54872;BME280;43914;57.680;11.982;2024-03-02T07:22:46;99998.47;;;5.51;100.00
54872;BME280;43914;57.680;11.982;2024-03-02T07:25:12;99997.57;;;5.52;100.00
54872;BME280;43914;57.680;11.982;2024-03-02T07:27:38;99998.73;;;5.55;100.00
54872;BME280;43914;57.680;11.982;2024-03-02T07:30:05;100000.39;;;5.57;100.00
54872;BME280;43914;57.680;11.982;2024-03-02T07:32:30;99994.45;;;5.58;100.00
54872;BME280;43914;57.680;11.982;2024-03-02T07:34:56;99990.41;;;5.59;100.00
54872;BME280;43914;57.680;11.982;2024-03-02T07:37:23;99986.68;;;5.61;100.00
54872;BME280;43914;57.680;11.982;2024-03-02T07:39:48;99981.98;;;5.60;100.00
54872;BME280;43914;57.680;11.982;2024-03-02T07:42:14;99983.89;;;5.64;100.00
54872;BME280;43914;57.680;11.982;2024-03-02T07:44:40;99988.02;;;5.65;100.00
54872;BME280;43914;57.680;11.982;2024-03-02T07:47:06;99988.09;;;5.66;100.00
54872;BME280;43914;57.680;11.982;2024-03-02T07:49:31;99983.48;;;5.68;100.00
54872;BME280;43914;57.680;11.982;2024-03-02T07:51:57;99983.23;;;5.68;100.00
54872;BME280;43914;57.680;11.982;2024-03-02T07:54:22;99984.89;;;5.71;100.00
54872;BME280;43914;57.680;11.982;2024-03-02T07:56:48;99984.66;;;5.73;100.00
54872;BME280;43914;57.680;11.982;2024-03-02T07:59:13;99985.15;;;5.73;100.00
54872;BME280;43914;57.680;11.982;2024-03-02T08:01:39;99987.45;;;5.75;100.00
54872;BME280;43914;57.680;11.982;2024-03-02T08:04:05;99981.95;;;5.77;100.00
54872;BME280;43914;57.680;11.982;2024-03-02T08:06:31;99984.64;;;5.79;100.00
54872;BME280;43914;57.680;11.982;2024-03-02T08:08:58;99985.14;;;5.82;100.00
54872;BME280;43914;57.680;11.982;2024-03-02T08:11:24;99980.16;;;5.83;100.00
54872;BME280;43914;57.680;11.982;2024-03-02T08:13:50;99976.79;;;5.86;100.00
54872;BME280;43914;57.680;11.982;2024-03-02T08:16:16;99981.52;;;5.90;100.00
54872;BME280;43914;57.680;11.982;2024-03-02T08:18:45;99979.98;;;5.93;100.00
54872;BME280;43914;57.680;11.982;2024-03-02T08:21:12;99978.52;;;5.95;100.00
54872;BME280;43914;57.680;11.982;2024-03-02T08:23:38;99981.17;;;5.96;100.00
54872;BME280;43914;57.680;11.982;2024-03-02T08:26:03;99978.61;;;6.00;100.00
54872;BME280;43914;57.680;11.982;2024-03-02T08:28:30;99979.63;;;6.05;100.00
54872;BME280;43914;57.680;11.982;2024-03-02T08:30:55;99976.86;;;6.10;100.00
54872;BME280;43914;57.680;11.982;2024-03-02T08:33:22;99974.49;;;6.13;100.00
54872;BME280;43914;57.680;11.982;2024-03-02T08:35:47;99968.04;;;6.17;100.00
54872;BME280;43914;57.680;11.982;2024-03-02T08:38:13;99962.44;;;6.15;100.00
54872;BME280;43914;57.680;11.982;2024-03-02T08:40:38;99971.48;;;6.26;100.00
54872;BME280;43914;57.680;11.982;2024-03-02T08:43:03;99971.25;;;6.28;100.00
54872;BME280;43914;57.680;11.982;2024-03-02T08:45:29;99968.95;;;6.32;100.00
54872;BME280;43914;57.680;11.982;2024-03-02T08:47:54;99968.80;;;6.35;100.00
54872;BME280;43914;57.680;11.982;2024-03-02T08:50:20;99966.55;;;6.42;100.00
54872;BME280;43914;57.680;11.982;2024-03-02T08:52:46;99966.58;;;6.47;100.00
54872;BME280;43914;57.680;11.982;2024-03-02T08:55:11;99964.91;;;6.51;100.00
54872;BME280;43914;57.680;11.982;2024-03-02T08:57:37;99966.36;;;6.54;100.00
54872;BME280;43914;57.680;11.982;2024-03-02T09:00:03;99967.61;;;6.59;100.00
54872;BME280;43914;57.680;11.982;2024-03-02T09:02:31;99966.84;;;6.62;100.00
54872;BME280;43914;57.680;11.982;2024-03-02T09:04:56;99974.05;;;6.66;100.00
54872;BME280;43914;57.680;11.982;2024-03-02T09:07:22;99969.56;;;6.70;100.00
54872;BME280;43914;57.680;11.982;2024-03-02T09:09:47;99970.30;;;6.74;100.00
54872;BME280;43914;57.680;11.982;2024-03-02T09:12:13;99970.20;;;6.78;100.00
54872;BME280;43914;57.680;11.982;2024-03-02T09:14:38;99970.23;;;6.82;100.00
54872;BME280;43914;57.680;11.982;2024-03-02T09:17:04;99969.80;;;6.89;100.00
54872;BME280;43914;57.680;11.982;2024-03-02T09:19:30;99965.77;;;6.93;100.00
54872;BME280;43914;57.680;11.982;2024-03-02T09:21:55;99969.73;;;6.98;100.00
54872;BME280;43914;57.680;11.982;2024-03-02T09:24:22;99975.67;;;7.01;100.00
54872;BME280;43914;57.680;11.982;2024-03-02T09:26:47;99972.01;;;7.04;100.00
54872;BME280;43914;57.680;11.982;2024-03-02T09:29:14;99973.37;;;7.07;100.00
54872;BME280;43914;57.680;11.982;2024-03-02T09:31:40;99974.85;;;7.10;100.00
54872;BME280;43914;57.680;11.982;2024-03-02T09:34:06;99971.79;;;7.14;100.00
54872;BME280;43914;57.680;11.982;2024-03-02T09:36:32;99969.51;;;7.16;100.00
54872;BME280;43914;57.680;11.982;2024-03-02T09:38:58;99970.65;;;7.20;100.00
54872;BME280;43914;57.680;11.982;2024-03-02T09:41:23;99972.80;;;7.23;100.00
54872;BME280;43914;57.680;11.982;2024-03-02T09:43:50;99975.73;;;7.26;100.00
54872;BME280;43914;57.680;11.982;2024-03-02T09:46:16;99979.21;;;7.29;100.00
54872;BME280;43914;57.680;11.982;2024-03-02T09:48:41;99981.85;;;7.32;100.00
54872;BME280;43914;57.680;11.982;2024-03-02T09:51:07;99978.63;;;7.36;100.00
54872;BME280;43914;57.680;11.982;2024-03-02T09:53:34;99976.23;;;7.38;100.00
54872;BME280;43914;57.680;11.982;2024-03-02T09:56:00;99976.19;;;7.40;100.00
54872;BME280;43914;57.680;11.982;2024-03-02T09:58:26;99976.02;;;7.43;100.00
54872;BME280;43914;57.680;11.982;2024-03-02T10:00:53;99977.48;;;7.45;100.00
54872;BME280;43914;57.680;11.982;2024-03-02T10:03:18;99975.26;;;7.48;100.00
54872;BME280;43914;57.680;11.982;2024-03-02T10:05:44;99976.92;;;7.50;100.00
54872;BME280;43914;57.680;11.982;2024-03-02T10:08:10;99979.92;;;7.54;100.00
54872;BME280;43914;57.680;11.982;2024-03-02T10:10:36;99982.70;;;7.56;100.00
54872;BME280;43914;57.680;11.982;2024-03-02T10:13:06;99979.73;;;7.58;100.00
54872;BME280;43914;57.680;11.982;2024-03-02T10:15:33;99980.11;;;7.60;100.00
54872;BME280;43914;57.680;11.982;2024-03-02T10:17:58;99977.96;;;7.61;100.00
54872;BME280;43914;57.680;11.982;2024-03-02T10:20:27;99980.24;;;7.63;100.00
54872;BME280;43914;57.680;11.982;2024-03-02T10:22:55;99980.23;;;7.63;100.00
54872;BME280;43914;57.680;11.982;2024-03-02T10:25:33;99979.66;;;7.65;100.00
54872;BME280;43914;57.680;11.982;2024-03-02T10:28:00;99981.20;;;7.65;100.00
54872;BME280;43914;57.680;11.982;2024-03-02T10:30:26;99977.25;;;7.66;100.00
54872;BME280;43914;57.680;11.982;2024-03-02T10:32:53;99976.04;;;7.67;100.00
54872;BME280;43914;57.680;11.982;2024-03-02T10:35:20;99972.56;;;7.69;100.00
54872;BME280;43914;57.680;11.982;2024-03-02T10:37:47;99969.15;;;7.72;100.00
54872;BME280;43914;57.680;11.982;2024-03-02T10:40:15;99971.00;;;7.76;100.00
54872;BME280;43914;57.680;11.982;2024-03-02T10:42:42;99973.28;;;7.76;100.00
54872;BME280;43914;57.680;11.982;2024-03-02T10:45:09;99969.41;;;7.79;100.00
54872;BME280;43914;57.680;11.982;2024-03-02T10:47:38;99972.52;;;7.81;100.00
54872;BME280;43914;57.680;11.982;2024-03-02T10:50:07;99971.30;;;7.86;100.00
54872;BME280;43914;57.680;11.982;2024-03-02T10:52:36;99966.32;;;7.89;100.00
54872;BME280;43914;57.680;11.982;2024-03-02T10:55:02;99972.48;;;7.94;100.00
54872;BME280;43914;57.680;11.982;2024-03-02T10:57:45;99973.59;;;7.97;100.00
54872;BME280;43914;57.680;11.982;2024-03-02T11:00:15;99972.48;;;8.00;100.00
54872;BME280;43914;57.680;11.982;2024-03-02T11:02:50;99973.88;;;8.03;100.00
54872;BME280;43914;57.680;11.982;2024-03-02T11:05:22;99970.81;;;8.06;100.00
54872;BME280;43914;57.680;11.982;2024-03-02T11:07:53;99969.83;;;8.10;100.00
54872;BME280;43914;57.680;11.982;2024-03-02T11:10:22;99966.94;;;8.10;100.00
54872;BME280;43914;57.680;11.982;2024-03-02T11:12:54;99970.56;;;8.08;100.00
54872;BME280;43914;57.680;11.982;2024-03-02T11:15:24;99966.70;;;8.09;100.00
54872;BME280;43914;57.680;11.982;2024-03-02T11:17:52;99969.42;;;8.10;100.00
54872;BME280;43914;57.680;11.982;2024-03-02T11:20:18;99969.53;;;8.09;100.00
54872;BME280;43914;57.680;11.982;2024-03-02T11:22:45;99965.33;;;8.08;100.00
54872;BME280;43914;57.680;11.982;2024-03-02T11:25:27;99972.25;;;8.09;100.00
54872;BME280;43914;57.680;11.982;2024-03-02T11:33:04;99969.06;;;8.07;100.00
54872;BME280;43914;57.680;11.982;2024-03-02T11:35:34;99970.95;;;8.04;100.00
54872;BME280;43914;57.680;11.982;2024-03-02T11:38:01;99970.42;;;8.01;100.00
54872;BME280;43914;57.680;11.982;2024-03-02T11:40:28;99971.10;;;8.00;100.00
54872;BME280;43914;57.680;11.982;2024-03-02T11:42:54;99972.02;;;7.99;100.00
54872;BME280;43914;57.680;11.982;2024-03-02T11:45:24;99976.98;;;7.98;100.00
54872;BME280;43914;57.680;11.982;2024-03-02T11:47:51;99977.52;;;7.98;100.00
54872;BME280;43914;57.680;11.982;2024-03-02T11:50:39;99977.61;;;7.96;100.00
54872;BME280;43914;57.680;11.982;2024-03-02T11:53:07;99978.91;;;7.92;100.00
54872;BME280;43914;57.680;11.982;2024-03-02T11:55:38;99983.52;;;7.89;100.00
54872;BME280;43914;57.680;11.982;2024-03-02T11:58:06;99986.08;;;7.89;100.00
54872;BME280;43914;57.680;11.982;2024-03-02T12:00:32;99987.04;;;7.87;100.00
54872;BME280;43914;57.680;11.982;2024-03-02T12:03:07;99989.20;;;7.85;100.00
54872;BME280;43914;57.680;11.982;2024-03-02T12:05:33;99991.70;;;7.84;100.00
54872;BME280;43914;57.680;11.982;2024-03-02T12:08:04;99991.38;;;7.82;100.00
54872;BME280;43914;57.680;11.982;2024-03-02T12:10:30;99995.53;;;7.82;100.00
54872;BME280;43914;57.680;11.982;2024-03-02T12:13:03;99994.13;;;7.81;100.00
54872;BME280;43914;57.680;11.982;2024-03-02T12:15:30;99993.28;;;7.79;100.00
54872;BME280;43914;57.680;11.982;2024-03-02T12:18:01;99992.67;;;7.78;100.00
54872;BME280;43914;57.680;11.982;2024-03-02T12:20:28;99992.77;;;7.79;100.00
54872;BME280;43914;57.680;11.982;2024-03-02T12:22:55;99994.15;;;7.79;100.00
54872;BME280;43914;57.680;11.982;2024-03-02T12:25:22;99990.47;;;7.79;100.00
54872;BME280;43914;57.680;11.982;2024-03-02T12:27:50;99990.00;;;7.80;100.00
54872;BME280;43914;57.680;11.982;2024-03-02T12:30:19;99986.42;;;7.78;100.00
54872;BME280;43914;57.680;11.982;2024-03-02T12:32:45;99988.39;;;7.80;100.00
54872;BME280;43914;57.680;11.982;2024-03-02T12:35:11;99987.58;;;7.81;100.00
54872;BME280;43914;57.680;11.982;2024-03-02T12:37:50;99993.10;;;7.81;100.00
54872;BME280;43914;57.680;11.982;2024-03-02T12:40:17;99991.66;;;7.81;100.00
54872;BME280;43914;57.680;11.982;2024-03-02T12:42:44;99989.33;;;7.83;100.00
54872;BME280;43914;57.680;11.982;2024-03-02T12:45:11;99991.23;;;7.83;100.00
54872;BME280;43914;57.680;11.982;2024-03-02T12:47:37;99990.81;;;7.82;100.00
54872;BME280;43914;57.680;11.982;2024-03-02T12:50:07;99990.05;;;7.81;100.00
54872;BME280;43914;57.680;11.982;2024-03-02T12:52:33;99991.95;;;7.81;100.00
54872;BME280;43914;57.680;11.982;2024-03-02T12:55:00;99992.13;;;7.80;100.00